Time;durP1;ratioP1;P1;durP2;ratioP2;P2;SDS_P1;SDS_P2;PMS_P1;PMS_P2;Temp;Humidity;BMP_temperature;BMP_pressure;BME280_temperature;BME280_humidity;BME280_pressure;Samples;Min_cycle;Max_cycle;Signal;HPM_P1;HPM_P2
2022/07/10 00:00:36;;;;;;;7.58;4.42;;;;;;;22.47;65.37;99845.30;1736904;82;21489;-92
2022/07/10 00:03:03;;;;;;;4.92;4.53;;;;;;;22.45;65.38;99845.16;1736652;82;20976;-92
2022/07/10 00:05:31;;;;;;;6.78;5.20;;;;;;;22.41;65.51;99846.55;1736756;82;20873;-92
2022/07/10 00:07:58;;;;;;;8.43;4.28;;;;;;;22.37;65.70;99845.27;1736591;82;20996;-92
2022/07/10 00:10:26;;;;;;;5.78;4.80;;;;;;;22.37;65.79;99851.95;1736805;81;21773;-92
2022/07/10 00:12:53;;;;;;;9.38;5.17;;;;;;;22.33;65.82;99848.84;1737188;82;20913;-91
2022/07/10 00:15:20;;;;;;;5.35;4.85;;;;;;;22.31;65.85;99850.87;1738473;82;20901;-89
2022/07/10 00:17:49;;;;;;;10.05;4.58;;;;;;;22.28;65.87;99842.73;1738106;82;20909;-93
2022/07/10 00:20:16;;;;;;;7.05;4.70;;;;;;;22.24;65.89;99845.45;1736816;82;20936;-92
2022/07/10 00:22:43;;;;;;;9.30;4.65;;;;;;;22.22;66.00;99846.66;1736831;82;21219;-91
2022/07/10 00:25:12;;;;;;;7.30;4.72;;;;;;;22.21;66.03;99847.63;1736527;82;20921;-92
2022/07/10 00:27:39;;;;;;;8.10;4.70;;;;;;;22.18;66.08;99846.16;1736828;82;20976;-92
2022/07/10 00:30:08;;;;;;;6.37;4.12;;;;;;;22.15;66.21;99846.55;1736555;81;20991;-92
2022/07/10 00:32:36;;;;;;;8.00;4.58;;;;;;;22.12;66.17;99857.58;1736662;82;20913;-92
2022/07/10 00:35:04;;;;;;;7.60;4.55;;;;;;;22.04;66.32;99855.84;1736752;82;21215;-92
2022/07/10 00:37:31;;;;;;;5.55;5.05;;;;;;;21.97;66.60;99862.13;1736531;81;20949;-93
2022/07/10 00:39:59;;;;;;;5.22;4.58;;;;;;;21.93;66.86;99850.98;1736663;82;20948;-92
2022/07/10 00:42:26;;;;;;;6.22;4.30;;;;;;;21.91;66.91;99854.34;1736601;82;20919;-92
2022/07/10 00:44:53;;;;;;;4.97;4.20;;;;;;;21.89;66.90;99841.16;1736473;81;20878;-93
2022/07/10 00:47:22;;;;;;;8.80;5.03;;;;;;;21.87;66.98;99841.03;1736530;81;20916;-91
2022/07/10 00:49:50;;;;;;;9.48;4.80;;;;;;;21.83;67.01;99850.42;1736622;82;20936;-92
2022/07/10 00:53:31;;;;;;;5.42;4.95;;;;;;;21.78;67.34;99834.13;1817284;79;22580;-92
2022/07/10 00:56:00;;;;;;;8.68;4.62;;;;;;;21.70;67.43;99837.23;1791105;80;20979;-91
2022/07/10 00:58:29;;;;;;;5.22;4.72;;;;;;;21.68;67.45;99848.59;1791401;80;21256;-90
2022/07/10 01:00:56;;;;;;;5.58;4.92;;;;;;;21.61;67.60;99845.00;1789979;80;20892;-91
2022/07/10 01:03:25;;;;;;;5.75;5.33;;;;;;;21.56;67.79;99834.02;1789994;80;20868;-91
2022/07/10 01:05:54;;;;;;;7.12;5.87;;;;;;;21.52;67.99;99848.25;1759605;80;21373;-91
2022/07/10 01:08:22;;;;;;;7.42;4.65;;;;;;;21.50;68.18;99842.78;1760108;80;20927;-91
2022/07/10 01:10:50;;;;;;;7.08;4.92;;;;;;;21.47;68.35;99837.28;1790412;80;21361;-90
2022/07/10 01:13:18;;;;;;;5.75;4.60;;;;;;;21.45;68.56;99832.63;1790630;80;20978;-89
2022/07/10 01:15:45;;;;;;;4.90;4.40;;;;;;;21.42;68.66;99834.34;1792353;80;20950;-89
2022/07/10 01:18:12;;;;;;;6.95;5.78;;;;;;;21.37;68.77;99835.88;1791338;80;20884;-92
2022/07/10 01:20:39;;;;;;;9.10;5.40;;;;;;;21.29;69.06;99824.77;1791097;80;20923;-92
2022/07/10 01:23:06;;;;;;;7.15;5.22;;;;;;;21.26;69.05;99833.97;1791198;80;21232;-92
2022/07/10 01:25:33;;;;;;;7.12;4.72;;;;;;;21.24;69.15;99841.31;1790555;80;20880;-90
2022/07/10 01:28:00;;;;;;;7.95;5.33;;;;;;;21.21;69.21;99839.02;1790669;80;20991;-91
2022/07/10 01:30:27;;;;;;;5.90;4.97;;;;;;;21.18;69.39;99832.70;1790427;80;20955;-92
2022/07/10 01:32:54;;;;;;;6.12;5.42;;;;;;;21.16;69.48;99830.71;1790124;80;20896;-92
2022/07/10 01:35:21;;;;;;;6.53;4.92;;;;;;;21.15;69.58;99828.24;1789962;80;21239;-93
2022/07/10 01:37:49;;;;;;;5.67;4.95;;;;;;;21.10;69.71;99826.94;1789977;80;20935;-93
2022/07/10 01:40:16;;;;;;;8.60;5.10;;;;;;;21.08;69.88;99824.13;1790159;80;21080;-90
2022/07/10 01:42:43;;;;;;;6.62;5.25;;;;;;;21.06;69.93;99818.16;1790008;80;21448;-93
2022/07/10 01:45:10;;;;;;;4.50;4.08;;;;;;;21.02;70.09;99816.34;1760009;80;20911;-93
2022/07/10 01:47:39;;;;;;;5.50;4.92;;;;;;;20.99;70.21;99820.70;1790804;80;21217;-92
2022/07/10 01:50:07;;;;;;;9.10;4.83;;;;;;;20.95;70.33;99827.40;1791688;80;20853;-89
2022/07/10 01:52:34;;;;;;;8.98;5.62;;;;;;;20.92;70.41;99825.11;1784860;80;20841;-90
2022/07/10 01:55:01;;;;;;;5.42;4.97;;;;;;;20.87;70.62;99829.61;1777489;80;20936;-91
2022/07/10 01:57:28;;;;;;;8.28;4.97;;;;;;;20.84;70.79;99831.31;1777599;80;20928;-89
2022/07/10 01:59:55;;;;;;;7.55;5.75;;;;;;;20.83;70.87;99827.00;1778230;80;21183;-90
2022/07/10 02:02:23;;;;;;;5.87;5.00;;;;;;;20.82;70.93;99820.00;1777179;80;21366;-92
2022/07/10 02:04:50;;;;;;;5.72;5.10;;;;;;;20.81;71.00;99814.83;1775855;80;20944;-91
2022/07/10 02:07:18;;;;;;;6.70;5.20;;;;;;;20.80;71.16;99816.67;1738887;82;21019;-92
2022/07/10 02:09:45;;;;;;;8.65;5.45;;;;;;;20.79;71.21;99811.03;1775871;80;20928;-92
2022/07/10 02:12:14;;;;;;;8.75;5.55;;;;;;;20.80;71.28;99808.69;1776116;80;21196;-91
2022/07/10 02:14:41;;;;;;;6.22;4.97;;;;;;;20.80;71.32;99805.20;1777728;80;20968;-90
2022/07/10 02:17:09;;;;;;;6.58;5.97;;;;;;;20.80;71.39;99805.20;1777588;80;20960;-89
2022/07/10 02:19:36;;;;;;;5.72;5.22;;;;;;;20.80;71.47;99804.69;1776404;80;20939;-91
2022/07/10 02:22:03;;;;;;;7.05;5.60;;;;;;;20.80;71.55;99805.20;1776404;80;20900;-91
2022/07/10 02:24:31;;;;;;;10.68;6.58;;;;;;;20.80;71.61;99801.20;1776202;80;21139;-92
2022/07/10 02:26:57;;;;;;;7.37;6.15;;;;;;;20.81;71.72;99805.51;1775974;80;21007;-90
2022/07/10 02:29:25;;;;;;;6.28;5.42;;;;;;;20.82;71.81;99798.67;1775987;80;20889;-91
2022/07/10 02:31:52;;;;;;;6.15;5.40;;;;;;;20.83;71.80;99800.83;1775831;80;21038;-92
2022/07/10 02:34:20;;;;;;;7.15;5.42;;;;;;;20.81;71.82;99798.36;1776046;80;20971;-92
2022/07/10 02:36:47;;;;;;;10.13;5.50;;;;;;;20.79;72.03;99792.38;1775746;80;21248;-91
2022/07/10 02:39:14;;;;;;;6.42;5.80;;;;;;;20.81;72.23;99792.19;1776083;80;20976;-91
2022/07/10 02:41:41;;;;;;;6.65;6.03;;;;;;;20.84;72.31;99787.84;1776037;80;20924;-91
2022/07/10 02:44:08;;;;;;;6.05;5.40;;;;;;;20.87;72.32;99785.63;1776183;80;21523;-92
2022/07/10 02:46:36;;;;;;;6.20;5.47;;;;;;;20.91;72.35;99791.45;1776018;80;21373;-92
2022/07/10 02:49:04;;;;;;;8.20;6.42;;;;;;;20.94;72.36;99786.25;1775989;80;21229;-92
2022/07/10 02:51:31;;;;;;;10.43;6.28;;;;;;;20.98;72.38;99782.23;1775959;80;20924;-92
2022/07/10 02:53:58;;;;;;;9.03;5.55;;;;;;;21.00;72.37;99778.36;1783734;80;20900;-91
2022/07/10 02:56:25;;;;;;;6.80;6.00;;;;;;;21.04;72.36;99774.33;1784070;80;20943;-91
2022/07/10 02:58:53;;;;;;;7.08;5.05;;;;;;;21.07;72.32;99768.62;1784309;80;20928;-90
2022/07/10 03:01:20;;;;;;;7.65;5.37;;;;;;;21.10;72.29;99766.95;1784168;80;21155;-92
2022/07/10 03:03:47;;;;;;;5.65;5.17;;;;;;;21.14;72.26;99763.91;1784168;80;20876;-91
2022/07/10 03:06:14;;;;;;;7.50;6.28;;;;;;;21.20;72.17;99760.02;1784008;80;20916;-92
2022/07/10 03:08:41;;;;;;;5.80;5.15;;;;;;;21.25;72.16;99760.80;1784302;80;20888;-91
2022/07/10 03:11:08;;;;;;;9.05;5.95;;;;;;;21.29;72.19;99768.25;1784461;80;20994;-92
2022/07/10 03:13:37;;;;;;;7.17;5.22;;;;;;;21.35;72.09;99768.03;1784431;80;21974;-90
2022/07/10 03:16:04;;;;;;;7.35;5.05;;;;;;;21.39;71.98;99758.66;1785596;80;20841;-90
2022/07/10 03:18:32;;;;;;;7.65;6.95;;;;;;;21.44;71.92;99762.96;1785298;80;20888;-92
2022/07/10 03:21:00;;;;;;;7.58;5.83;;;;;;;21.47;71.87;99765.77;1786230;80;20991;-90
2022/07/10 03:23:27;;;;;;;14.13;6.53;;;;;;;21.51;71.87;99764.39;1786351;80;20856;-89
2022/07/10 03:25:54;;;;;;;8.28;5.55;;;;;;;21.58;71.76;99771.15;1785356;80;21244;-91
2022/07/10 03:28:23;;;;;;;10.38;6.37;;;;;;;21.65;71.61;99768.88;1784138;80;20892;-91
2022/07/10 03:30:50;;;;;;;6.10;5.62;;;;;;;21.72;71.38;99763.63;1784053;80;21394;-93
2022/07/10 03:33:18;;;;;;;8.80;6.17;;;;;;;21.79;71.10;99766.38;1783999;80;21037;-92
2022/07/10 03:35:45;;;;;;;6.05;4.83;;;;;;;21.85;70.83;99773.14;1783991;80;21031;-92
2022/07/10 03:38:12;;;;;;;7.92;4.97;;;;;;;21.91;70.59;99776.92;1753443;80;21139;-91
2022/07/10 03:40:38;;;;;;;5.40;4.97;;;;;;;21.98;70.30;99778.33;1784946;80;20947;-93
2022/07/10 03:43:05;;;;;;;10.00;5.12;;;;;;;22.03;70.00;99778.11;1784407;80;20896;-92
2022/07/10 03:45:33;;;;;;;7.00;5.50;;;;;;;22.08;69.88;99780.21;1784075;80;20904;-93
2022/07/10 03:48:00;;;;;;;5.25;4.90;;;;;;;22.12;69.83;99783.66;1784201;80;21389;-91
2022/07/10 03:50:27;;;;;;;6.42;4.90;;;;;;;22.16;69.48;99780.08;1784168;80;21237;-92
2022/07/10 03:52:54;;;;;;;6.62;5.15;;;;;;;22.21;69.23;99785.70;1784029;80;20872;-92
2022/07/10 03:55:21;;;;;;;6.60;5.60;;;;;;;22.23;69.03;99789.05;1784099;80;20885;-92
2022/07/10 03:57:54;;;;;;;8.58;4.60;;;;;;;22.26;69.02;99795.34;1784085;80;20967;-92
2022/07/10 04:00:24;;;;;;;7.03;5.33;;;;;;;22.31;68.92;99796.92;1784508;80;20994;-93
2022/07/10 04:03:04;;;;;;;6.30;4.83;;;;;;;22.34;68.80;99789.89;1783905;80;21480;-92
2022/07/10 04:05:32;;;;;;;7.58;5.55;;;;;;;22.37;68.66;99783.82;1784268;80;20930;-91
2022/07/10 04:07:59;;;;;;;10.00;5.72;;;;;;;22.39;68.44;99789.32;1784101;80;20928;-91
2022/07/10 04:10:28;;;;;;;11.45;5.58;;;;;;;22.45;68.10;99790.39;1784245;80;20937;-91
2022/07/10 04:12:55;;;;;;;6.33;5.08;;;;;;;22.49;67.84;99786.33;1784280;80;20880;-92
2022/07/10 04:15:22;;;;;;;6.45;4.97;;;;;;;22.55;67.65;99791.73;1785309;80;21245;-88
2022/07/10 04:17:49;;;;;;;5.85;4.83;;;;;;;22.61;67.46;99794.66;1786474;80;20952;-89
2022/07/10 04:20:17;;;;;;;5.30;4.80;;;;;;;22.70;67.09;99798.85;1785710;80;20876;-90
2022/07/10 04:22:44;;;;;;;6.45;4.45;;;;;;;22.76;66.82;99791.41;1786936;79;20928;-90
2022/07/10 04:25:11;;;;;;;5.40;4.90;;;;;;;22.89;66.66;99788.03;1786053;80;20880;-89
2022/07/10 04:27:39;;;;;;;7.03;5.40;;;;;;;23.02;66.30;99786.84;1786019;80;21118;-89
2022/07/10 04:30:06;;;;;;;5.87;4.75;;;;;;;23.15;65.89;99777.58;1785277;80;20904;-90
2022/07/10 04:32:33;;;;;;;5.47;4.90;;;;;;;23.30;65.66;99778.82;1784336;80;21394;-92
2022/07/10 04:35:03;;;;;;;7.97;4.87;;;;;;;23.59;65.47;99784.97;1784126;80;20956;-91
2022/07/10 04:37:34;;;;;;;5.47;4.55;;;;;;;24.04;64.73;99793.96;1784060;80;20912;-92
2022/07/10 04:40:01;;;;;;;4.55;4.15;;;;;;;24.57;63.51;99792.80;1784119;80;21167;-91
2022/07/10 04:42:28;;;;;;;7.10;4.67;;;;;;;25.14;62.11;99792.69;1784324;80;21473;-92
2022/07/10 04:44:55;;;;;;;7.42;4.47;;;;;;;25.66;60.49;99779.44;1784256;80;20911;-90
2022/07/10 04:47:22;;;;;;;6.30;4.42;;;;;;;26.20;59.03;99778.19;1784362;80;20947;-91
2022/07/10 04:49:49;;;;;;;6.25;3.92;;;;;;;26.75;57.66;99779.54;1784248;80;20900;-90
2022/07/10 04:52:16;;;;;;;5.10;4.70;;;;;;;27.25;55.99;99783.04;1785377;80;21764;-90
2022/07/10 04:54:43;;;;;;;5.10;4.62;;;;;;;27.67;54.49;99768.94;1785007;80;20900;-91
2022/07/10 04:57:10;;;;;;;4.58;3.85;;;;;;;28.01;53.46;99771.53;1784104;80;20931;-91
2022/07/10 04:59:37;;;;;;;7.95;4.35;;;;;;;28.30;52.12;99759.64;1784163;80;21493;-90
2022/07/10 05:02:04;;;;;;;7.42;4.83;;;;;;;28.55;51.51;99761.38;1784335;80;20837;-91
2022/07/10 05:04:33;;;;;;;6.40;4.37;;;;;;;28.81;50.84;99772.28;1783893;80;21410;-91
2022/07/10 05:07:00;;;;;;;6.35;4.05;;;;;;;29.07;50.25;99779.93;1783767;80;21088;-90
2022/07/10 05:09:27;;;;;;;7.95;4.75;;;;;;;29.28;49.49;99773.67;1784040;80;20959;-89
2022/07/10 05:11:54;;;;;;;7.62;4.08;;;;;;;29.51;49.17;99776.89;1784002;80;20920;-90
2022/07/10 05:14:21;;;;;;;5.12;4.33;;;;;;;29.78;48.60;99770.45;1785404;80;20940;-88
2022/07/10 05:16:48;;;;;;;10.03;4.90;;;;;;;30.03;48.06;99772.83;1786085;80;21241;-87
2022/07/10 05:19:16;;;;;;;8.90;4.40;;;;;;;30.23;47.20;99771.05;1785066;80;20849;-90
2022/07/10 05:21:43;;;;;;;5.28;4.25;;;;;;;30.48;46.33;99776.14;1784011;80;20857;-91
2022/07/10 05:24:10;;;;;;;4.75;4.35;;;;;;;30.66;45.93;99771.03;1784145;80;20971;-91
2022/07/10 05:26:37;;;;;;;6.12;4.03;;;;;;;30.91;45.29;99767.13;1784310;80;21328;-92
2022/07/10 05:29:04;;;;;;;4.30;3.90;;;;;;;31.12;44.66;99766.88;1784033;80;21313;-92
2022/07/10 05:31:32;;;;;;;5.20;4.50;;;;;;;31.14;44.00;99762.86;1783901;80;20939;-92
2022/07/10 05:33:59;;;;;;;3.95;3.55;;;;;;;30.97;43.98;99761.54;1784054;80;20928;-92
2022/07/10 05:36:26;;;;;;;4.22;3.92;;;;;;;30.61;44.65;99754.69;1784061;80;20896;-93
2022/07/10 05:38:53;;;;;;;5.00;4.17;;;;;;;30.25;45.30;99755.94;1784258;80;20924;-91
2022/07/10 05:41:20;;;;;;;5.95;4.30;;;;;;;29.98;45.75;99746.25;1784141;80;21745;-91
2022/07/10 05:43:47;;;;;;;4.83;4.37;;;;;;;29.72;46.18;99733.03;1784251;80;20920;-90
2022/07/10 05:46:14;;;;;;;4.80;4.40;;;;;;;29.45;46.91;99729.20;1784285;80;21421;-92
2022/07/10 05:48:42;;;;;;;4.65;4.12;;;;;;;29.18;47.50;99720.80;1784294;80;20948;-92
2022/07/10 05:51:10;;;;;;;11.70;4.15;;;;;;;28.98;47.98;99714.38;1784641;80;20956;-93
2022/07/10 05:53:37;;;;;;;6.50;4.90;;;;;;;29.02;48.20;99710.98;1784606;80;21089;-93
2022/07/10 05:56:06;;;;;;;6.92;4.78;;;;;;;29.17;48.46;99704.29;1784514;80;20896;-93
2022/07/10 05:58:33;;;;;;;5.20;4.80;;;;;;;29.34;47.74;99706.02;1784506;80;20873;-93
2022/07/10 06:01:00;;;;;;;5.15;4.10;;;;;;;29.42;47.60;99710.25;1784532;80;20896;-91
2022/07/10 06:03:27;;;;;;;4.67;4.00;;;;;;;29.55;47.53;99713.22;1784279;80;20884;-92
2022/07/10 06:05:54;;;;;;;9.35;4.67;;;;;;;29.64;47.24;99717.18;1784472;80;21241;-92
2022/07/10 06:08:20;;;;;;;5.17;4.33;;;;;;;29.74;46.90;99709.29;1784937;80;20920;-93
2022/07/10 06:10:48;;;;;;;5.65;4.28;;;;;;;29.80;46.40;99704.81;1786655;79;20998;-90
2022/07/10 06:13:15;;;;;;;7.28;4.40;;;;;;;30.05;46.40;99695.53;1786390;80;20971;-90
2022/07/10 06:15:43;;;;;;;6.78;4.53;;;;;;;30.39;45.77;99698.30;1787060;80;20908;-90
2022/07/10 06:18:10;;;;;;;6.00;4.75;;;;;;;30.73;45.08;99700.49;1786936;79;21115;-90
2022/07/10 06:20:37;;;;;;;5.50;4.75;;;;;;;31.01;44.45;99691.97;1787020;78;20932;-90
2022/07/10 06:23:04;;;;;;;10.98;5.08;;;;;;;31.28;44.15;99690.19;1786403;80;20928;-91
2022/07/10 06:25:31;;;;;;;5.33;4.83;;;;;;;31.69;43.49;99693.95;1784977;80;20896;-93
2022/07/10 06:27:58;;;;;;;6.40;3.98;;;;;;;32.22;42.55;99692.34;1784404;80;21511;-92
2022/07/10 06:30:25;;;;;;;5.92;4.30;;;;;;;32.72;41.63;99688.95;1784134;80;21328;-90
2022/07/10 06:32:52;;;;;;;5.40;4.33;;;;;;;33.08;40.86;99681.04;1784448;80;20916;-91
2022/07/10 06:35:19;;;;;;;6.33;5.03;;;;;;;33.35;39.69;99677.64;1784402;80;21512;-92
2022/07/10 06:37:47;;;;;;;8.10;3.80;;;;;;;33.29;39.23;99672.45;1784653;80;20987;-91
2022/07/10 06:40:14;;;;;;;6.50;3.80;;;;;;;33.01;39.46;99650.81;1784618;80;21011;-93
2022/07/10 06:42:43;;;;;;;7.60;4.67;;;;;;;32.88;39.81;99670.30;1784207;80;21188;-92
2022/07/10 06:45:13;;;;;;;5.08;3.62;;;;;;;32.60;40.26;99662.81;1784105;80;21437;-92
2022/07/10 06:47:55;;;;;;;5.87;4.22;;;;;;;32.37;40.88;99664.49;1784723;80;21440;-93
2022/07/10 06:50:27;;;;;;;5.58;4.10;;;;;;;32.21;41.06;99663.01;1784956;80;21417;-92
2022/07/10 06:52:54;;;;;;;11.48;4.55;;;;;;;32.27;40.93;99648.15;1785893;80;20963;-91
2022/07/10 06:55:21;;;;;;;7.22;4.08;;;;;;;32.55;40.49;99649.21;1753458;81;21093;-92
2022/07/10 06:57:48;;;;;;;4.12;3.62;;;;;;;32.94;40.13;99644.00;1753414;80;20959;-91
2022/07/10 07:00:18;;;;;;;9.88;4.28;;;;;;;33.33;39.43;99637.68;1752350;81;20872;-92
2022/07/10 07:02:46;;;;;;;6.22;4.40;;;;;;;33.71;38.62;99635.63;1751463;82;21346;-92
2022/07/10 07:05:16;;;;;;;5.97;3.92;;;;;;;34.08;38.00;99633.20;1753085;82;21009;-91
2022/07/10 07:07:43;;;;;;;4.85;4.37;;;;;;;34.43;37.47;99631.03;1752538;82;21146;-91
2022/07/10 07:10:10;;;;;;;6.62;4.33;;;;;;;34.76;36.86;99638.91;1751429;82;20975;-93
2022/07/10 07:12:37;;;;;;;5.10;3.65;;;;;;;35.06;36.10;99632.00;1750918;82;21374;-92
2022/07/10 07:15:06;;;;;;;7.20;4.75;;;;;;;35.40;35.34;99641.42;1751158;82;20897;-90
2022/07/10 07:17:33;;;;;;;4.37;4.03;;;;;;;35.69;34.64;99643.72;1751853;82;20907;-90
2022/07/10 07:25:33;;;;;;;6.65;3.77;;;;;;;36.50;33.57;99640.63;1753142;81;20917;-90
2022/07/10 07:28:00;;;;;;;13.13;4.72;;;;;;;36.82;33.12;99642.80;1751943;81;20912;-92
2022/07/10 07:30:27;;;;;;;7.33;3.90;;;;;;;36.98;32.75;99638.52;1750804;81;20888;-92
2022/07/10 07:32:56;;;;;;;8.38;3.83;;;;;;;37.15;31.86;99638.86;1751157;82;21199;-93
2022/07/10 07:35:23;;;;;;;9.88;4.42;;;;;;;37.30;31.35;99632.39;1750849;82;21373;-91
2022/07/10 07:37:51;;;;;;;7.28;3.60;;;;;;;37.42;31.10;99628.67;1750666;81;20992;-91
2022/07/10 07:40:22;;;;;;;8.13;3.92;;;;;;;37.40;30.58;99628.16;1750585;81;20896;-93
2022/07/10 07:42:51;;;;;;;6.72;3.52;;;;;;;37.39;30.40;99631.17;1750511;81;20952;-92
2022/07/10 07:45:18;;;;;;;5.08;3.60;;;;;;;37.22;30.54;99638.50;1750818;82;21477;-92
2022/07/10 07:47:50;;;;;;;6.90;4.22;;;;;;;36.99;30.80;99641.50;1750679;82;21410;-93
2022/07/10 07:50:18;;;;;;;;;;;;;;;36.69;31.11;99639.39;1752405;82;21410;-93
2022/07/10 07:52:46;;;;;;;5.95;3.70;;;;;;;36.37;31.79;99640.75;1750663;82;20087;-94
2022/07/10 07:55:14;;;;;;;5.00;3.90;;;;;;;36.06;32.24;99633.34;1771868;80;20963;-93
2022/07/10 07:57:43;;;;;;;6.03;4.10;;;;;;;35.72;32.61;99630.62;1776297;80;21151;-91
2022/07/10 08:00:11;;;;;;;5.03;3.70;;;;;;;35.38;33.20;99626.70;1776015;80;20976;-92
2022/07/10 08:02:41;;;;;;;8.55;4.10;;;;;;;35.04;33.39;99630.10;1775820;80;20932;-92
2022/07/10 08:05:09;;;;;;;8.00;3.50;;;;;;;34.67;34.24;99638.66;1738962;82;20976;-92
2022/07/10 08:07:40;;;;;;;6.72;4.25;;;;;;;34.16;34.77;99610.11;1776201;80;20884;-91
2022/07/10 08:10:10;;;;;;;6.20;4.05;;;;;;;33.96;35.29;99651.70;1775866;80;21224;-91
2022/07/10 08:12:38;;;;;;;8.70;5.03;;;;;;;33.60;36.17;99653.02;1775876;80;20916;-91
2022/07/10 08:15:10;;;;;;;8.35;4.62;;;;;;;33.29;36.31;99652.07;1776031;80;20849;-92
2022/07/10 08:17:39;;;;;;;6.37;4.12;;;;;;;32.97;36.54;99664.67;1776919;80;20944;-92
2022/07/10 08:20:10;;;;;;;7.87;4.50;;;;;;;32.67;36.29;99667.20;1778061;79;20877;-91
2022/07/10 08:22:37;;;;;;;5.72;4.50;;;;;;;32.31;36.74;99656.05;1777933;80;21228;-93
2022/07/10 08:25:06;;;;;;;15.80;5.08;;;;;;;32.03;37.22;99656.63;1776274;80;20971;-91
2022/07/10 08:27:34;;;;;;;8.40;4.15;;;;;;;31.90;37.64;99661.08;1776796;80;20920;-90
2022/07/10 08:30:01;;;;;;;6.28;4.10;;;;;;;31.80;37.84;99657.73;1776163;80;21046;-92
2022/07/10 08:32:28;;;;;;;6.95;4.35;;;;;;;31.79;38.51;99662.34;1775952;80;21382;-90
2022/07/10 08:34:56;;;;;;;10.50;4.15;;;;;;;31.89;39.11;99663.52;1776501;80;21132;-92
2022/07/10 08:37:24;;;;;;;4.05;3.33;;;;;;;32.03;39.54;99666.11;1775729;80;20936;-90
2022/07/10 08:39:51;;;;;;;4.92;3.42;;;;;;;32.25;39.47;99663.33;1775875;80;20885;-91
2022/07/10 08:42:18;;;;;;;5.90;3.00;;;;;;;32.41;38.97;99670.50;1776189;80;20968;-92
2022/07/10 08:44:45;;;;;;;6.75;3.77;;;;;;;32.54;38.23;99669.82;1776192;80;20897;-91
2022/07/10 08:47:12;;;;;;;3.98;3.00;;;;;;;32.58;38.08;99674.47;1775945;80;21184;-90
2022/07/10 08:49:46;;;;;;;6.42;4.47;;;;;;;32.62;37.82;99676.94;1775747;80;20975;-91
2022/07/10 08:52:33;;;;;;;6.83;2.72;;;;;;;32.64;37.94;99690.27;1775752;80;20889;-91
2022/07/10 08:55:01;;;;;;;5.33;2.90;;;;;;;32.58;37.77;99691.30;1778967;80;21485;-91
2022/07/10 08:57:29;;;;;;;5.58;3.90;;;;;;;32.51;38.05;99696.11;1781549;80;20979;-91
2022/07/10 08:59:58;;;;;;;6.15;3.85;;;;;;;32.42;37.91;99684.91;1781672;80;21248;-91
2022/07/10 09:02:25;;;;;;;11.28;4.08;;;;;;;32.32;38.26;99691.05;1781702;80;20880;-90
2022/07/10 09:04:52;;;;;;;9.10;3.42;;;;;;;32.20;38.17;99689.88;1781504;80;20944;-92
2022/07/10 09:07:19;;;;;;;5.33;2.90;;;;;;;32.06;38.38;99694.10;1781430;80;20972;-92
2022/07/10 09:09:57;;;;;;;5.62;4.08;;;;;;;31.93;38.91;99706.69;1781591;80;20908;-90
2022/07/10 09:12:24;;;;;;;5.75;3.35;;;;;;;31.81;39.49;99710.33;1781461;80;21219;-94
2022/07/10 09:14:52;;;;;;;6.10;3.35;;;;;;;31.67;40.04;99704.22;1781723;80;20975;-92
2022/07/10 09:17:19;;;;;;;3.47;3.17;;;;;;;31.47;39.57;99694.77;1781863;80;20924;-91
2022/07/10 09:19:46;;;;;;;6.30;3.83;;;;;;;31.28;40.01;99692.06;1782058;80;21347;-88
2022/07/10 09:22:15;;;;;;;7.80;4.33;;;;;;;31.18;40.59;99684.09;1782665;80;20911;-90
2022/07/10 09:24:44;;;;;;;6.47;3.37;;;;;;;31.12;40.95;99678.85;1782371;80;21140;-92
2022/07/10 09:27:14;;;;;;;6.20;3.52;;;;;;;31.05;41.41;99673.63;1781805;80;20971;-92
2022/07/10 09:29:59;;;;;;;4.53;3.92;;;;;;;30.99;41.77;99661.07;1781922;80;20944;-93
2022/07/10 09:32:23;;;;;;;12.30;11.12;;;;;;;30.93;41.86;99647.20;1780294;80;20916;-93
2022/07/10 09:37:42;;;;;;;10.18;6.25;;;;;;;30.86;42.10;99633.84;1781835;80;21838;-92
2022/07/10 09:40:10;;;;;;;6.78;5.15;;;;;;;30.83;41.94;99622.11;1781813;80;20983;-94
2022/07/10 09:42:47;;;;;;;11.08;5.53;;;;;;;30.80;41.63;99623.16;1781747;80;21035;-93
2022/07/10 09:45:16;;;;;;;9.40;4.70;;;;;;;30.76;41.52;99617.42;1781624;80;21389;-91
2022/07/10 09:48:02;;;;;;;5.40;4.90;;;;;;;30.67;41.64;99622.44;1781739;80;20907;-92
2022/07/10 09:50:34;;;;;;;6.50;4.92;;;;;;;30.65;41.85;99616.99;1781234;80;21187;-94
2022/07/10 09:53:05;;;;;;;6.92;5.22;;;;;;;30.65;42.28;99616.45;1781902;80;21461;-91
2022/07/10 09:55:34;;;;;;;6.80;4.20;;;;;;;30.78;41.89;99620.16;1778928;80;20861;-93
2022/07/10 09:58:04;;;;;;;6.20;4.60;;;;;;;30.89;41.68;99620.34;1776558;80;20983;-93
2022/07/10 10:00:36;;;;;;;8.13;4.75;;;;;;;31.16;41.50;99621.76;1776499;80;20975;-91
2022/07/10 10:03:06;;;;;;;11.10;4.65;;;;;;;31.43;40.98;99625.08;1775490;80;21172;-93
2022/07/10 10:05:54;;;;;;;5.97;4.87;;;;;;;31.73;39.97;99624.05;1776093;80;20893;-91
2022/07/10 10:08:38;;;;;;;9.00;4.87;;;;;;;32.10;38.92;99634.16;1775928;80;20972;-93
2022/07/10 10:11:05;;;;;;;7.12;3.98;;;;;;;32.33;38.49;99622.15;1741788;80;21370;-92
2022/07/10 10:13:33;;;;;;;8.45;4.35;;;;;;;32.33;38.34;99629.48;1776158;80;20888;-92
2022/07/10 10:16:00;;;;;;;7.65;4.30;;;;;;;32.33;38.26;99631.65;1707582;80;21278;-93
2022/07/10 10:18:27;;;;;;;4.47;3.92;;;;;;;32.41;38.53;99627.62;1754302;80;20885;-92
2022/07/10 10:20:54;;;;;;;5.65;4.12;;;;;;;32.47;38.55;99627.94;1777035;80;21331;-89
2022/07/10 10:23:24;;;;;;;5.40;4.62;;;;;;;32.61;38.02;99626.97;1777864;80;20932;-90
2022/07/10 10:25:56;;;;;;;10.50;4.22;;;;;;;32.70;37.55;99624.03;1777294;80;20845;-93
2022/07/10 10:28:25;;;;;;;9.30;5.00;;;;;;;32.81;37.49;99627.63;1776648;80;21217;-89
2022/07/10 10:31:00;;;;;;;6.37;4.05;;;;;;;32.84;37.58;99621.69;1777128;80;20976;-90
2022/07/10 10:33:45;;;;;;;8.45;4.67;;;;;;;32.87;37.29;99624.41;1754651;80;20928;-92
2022/07/10 10:36:11;;;;;;;6.08;4.37;;;;;;;32.85;37.21;99620.59;1774725;80;21438;-91
2022/07/10 10:39:16;;;;;;;8.55;4.22;;;;;;;32.82;37.50;99625.20;1776280;80;20956;-92
2022/07/10 10:41:55;;;;;;;5.53;5.03;;;;;;;32.78;37.58;99628.16;1776256;80;21224;-92
2022/07/10 10:44:22;;;;;;;4.80;4.00;;;;;;;32.69;37.54;99627.84;1775039;80;20968;-91
2022/07/10 10:47:07;;;;;;;6.53;4.33;;;;;;;32.59;37.54;99629.13;1776321;80;20900;-92
2022/07/10 10:49:50;;;;;;;9.13;5.75;;;;;;;32.45;37.83;99631.45;1777522;80;20888;-93
2022/07/10 10:52:17;;;;;;;7.03;5.65;;;;;;;32.25;37.51;99632.12;1778588;79;20880;-91
2022/07/10 10:55:02;;;;;;;10.58;5.28;;;;;;;32.01;37.89;99624.86;1779357;79;20992;-90
2022/07/10 10:57:44;;;;;;;8.70;5.25;;;;;;;31.84;37.45;99629.55;1786533;80;21022;-92
2022/07/10 11:00:08;;;;;;;7.55;4.60;;;;;;;31.64;37.69;99624.23;1783244;80;20885;-91
2022/07/10 11:02:37;;;;;;;7.15;5.37;;;;;;;31.42;37.86;99632.40;1785015;80;21382;-90
2022/07/10 11:05:19;;;;;;;9.95;4.78;;;;;;;31.17;37.85;99630.16;1785045;80;20930;-91
2022/07/10 11:08:05;;;;;;;20.95;5.30;;;;;;;30.99;37.99;99629.93;1784810;80;21138;-90
2022/07/10 11:10:42;;;;;;;10.25;4.65;;;;;;;30.79;38.33;99629.09;1785121;80;20916;-89
2022/07/10 11:13:15;;;;;;;6.78;4.70;;;;;;;30.62;38.71;99631.03;1753991;80;21103;-92
2022/07/10 11:15:47;;;;;;;6.60;4.58;;;;;;;30.50;39.11;99630.56;1786190;80;20904;-91
2022/07/10 11:18:17;;;;;;;9.35;4.53;;;;;;;30.43;39.47;99626.41;1784827;80;20845;-91
2022/07/10 11:20:51;;;;;;;8.33;4.80;;;;;;;30.42;39.72;99630.19;1784754;80;22087;-88
2022/07/10 11:23:38;;;;;;;7.42;5.47;;;;;;;30.49;39.88;99630.30;1785197;80;20960;-89
2022/07/10 11:26:11;;;;;;;8.10;4.95;;;;;;;30.60;40.37;99625.86;1784181;80;20920;-91
2022/07/10 11:28:57;;;;;;;8.18;4.80;;;;;;;30.76;40.93;99622.29;1784146;80;26550;-89
2022/07/10 11:31:26;;;;;;;5.80;4.47;;;;;;;30.90;40.56;99619.25;1784651;80;20911;-91
2022/07/10 11:33:55;;;;;;;8.18;4.90;;;;;;;31.03;40.27;99618.07;1784372;80;21232;-89
2022/07/10 11:36:26;;;;;;;9.93;5.53;;;;;;;31.07;40.39;99616.50;1784007;80;20888;-91
2022/07/10 11:39:03;;;;;;;7.37;5.20;;;;;;;31.07;40.51;99611.09;1784219;80;21342;-93
2022/07/10 11:41:29;;;;;;;5.92;5.12;;;;;;;31.08;40.14;99618.13;1784661;80;20959;-93
2022/07/10 11:43:59;;;;;;;9.60;5.33;;;;;;;31.06;39.98;99617.56;1784400;80;21404;-91
2022/07/10 11:46:29;;;;;;;11.03;5.80;;;;;;;31.01;40.19;99621.02;1784777;80;21350;-90
2022/07/10 11:48:59;;;;;;;10.70;6.17;;;;;;;30.95;40.57;99616.63;1784699;80;20888;-91